createdAt,value
2019-03-23T00:02:15.958Z,4.00
2019-03-23T00:06:30.744Z,3.90
2019-03-23T00:10:34.294Z,3.80
2019-03-23T00:14:42.438Z,3.80
2019-03-23T00:18:50.581Z,3.70
2019-03-23T00:22:58.726Z,3.70
2019-03-23T00:27:06.871Z,3.70
2019-03-23T00:31:15.018Z,3.60
2019-03-23T00:35:23.157Z,3.60
2019-03-23T00:39:31.301Z,3.50
2019-03-23T00:43:39.437Z,3.50
2019-03-23T00:47:47.598Z,3.50
2019-03-23T00:51:55.794Z,3.40
2019-03-23T00:56:04.001Z,3.40
2019-03-23T01:00:12.332Z,3.30
2019-03-23T01:04:20.470Z,3.30
2019-03-23T01:08:28.618Z,3.30
2019-03-23T01:12:37.090Z,3.20
2019-03-23T01:16:45.618Z,3.20
2019-03-23T01:20:53.766Z,3.20
2019-03-23T01:25:01.910Z,3.20
2019-03-23T01:29:11.240Z,3.10
2019-03-23T01:33:20.574Z,3.10
2019-03-23T01:37:29.890Z,3.10
2019-03-23T01:41:38.302Z,3.00
2019-03-23T01:45:46.446Z,3.00
2019-03-23T01:49:54.581Z,3.00
2019-03-23T01:54:02.726Z,3.00
2019-03-23T01:58:10.859Z,2.90
2019-03-23T02:02:19.002Z,2.90
2019-03-23T02:06:27.137Z,2.80
2019-03-23T02:10:35.282Z,2.80
2019-03-23T02:14:43.426Z,2.80
2019-03-23T02:18:51.655Z,2.70
2019-03-23T02:22:59.794Z,2.60
2019-03-23T02:27:07.982Z,2.60
2019-03-23T02:31:16.135Z,2.50
2019-03-23T02:35:24.630Z,2.50
2019-03-23T02:39:32.770Z,2.50
2019-03-23T02:43:40.913Z,2.40
2019-03-23T02:47:49.049Z,2.40
2019-03-23T02:51:57.196Z,2.40
2019-03-23T02:56:05.342Z,2.30
2019-03-23T03:00:13.646Z,2.30
2019-03-23T03:04:22.147Z,2.20
2019-03-23T03:08:30.286Z,2.30
2019-03-23T03:12:38.440Z,2.20
2019-03-23T03:16:46.993Z,2.20
2019-03-23T03:20:55.136Z,2.20
2019-03-23T03:25:03.386Z,2.10
2019-03-23T03:29:11.523Z,2.10
2019-03-23T03:33:19.670Z,2.00
2019-03-23T03:37:27.810Z,2.00
2019-03-23T03:41:35.973Z,2.00
2019-03-23T03:45:44.103Z,2.00
2019-03-23T03:49:52.578Z,1.90
2019-03-23T03:54:00.719Z,1.90
2019-03-23T03:58:10.137Z,1.90
2019-03-23T04:02:18.275Z,1.80
2019-03-23T04:06:26.424Z,1.80
2019-03-23T04:10:34.555Z,1.80
2019-03-23T04:14:42.691Z,1.80
2019-03-23T04:18:50.842Z,1.70
2019-03-23T04:22:58.992Z,1.70
2019-03-23T04:27:07.136Z,1.70
2019-03-23T04:31:15.258Z,1.60
2019-03-23T04:35:23.735Z,1.60
2019-03-23T04:39:31.878Z,1.60
2019-03-23T04:43:40.027Z,1.60
2019-03-23T04:47:48.414Z,1.60
2019-03-23T04:51:56.574Z,1.60
2019-03-23T04:56:04.697Z,1.60
2019-03-23T05:00:13.451Z,1.50
2019-03-23T05:04:21.594Z,1.40
2019-03-23T05:08:33.642Z,1.30
2019-03-23T05:12:39.914Z,1.30
2019-03-23T05:16:49.226Z,1.30
2019-03-23T05:20:58.555Z,1.20
2019-03-23T05:25:10.963Z,1.20
2019-03-23T05:29:20.274Z,1.20
2019-03-23T05:33:29.606Z,1.20
2019-03-23T05:37:38.909Z,1.20
2019-03-23T05:41:48.547Z,1.20
2019-03-23T05:45:57.859Z,1.20
2019-03-23T05:50:07.422Z,1.20
2019-03-23T05:54:16.809Z,1.20
2019-03-23T05:58:26.429Z,1.30
2019-03-23T06:02:35.756Z,1.40
2019-03-23T06:06:45.066Z,1.40
2019-03-23T06:10:54.686Z,1.50
2019-03-23T06:15:04.245Z,1.70
2019-03-23T06:19:13.930Z,1.90
2019-03-23T06:23:23.527Z,2.10
2019-03-23T06:27:33.612Z,2.30
2019-03-23T06:31:43.822Z,2.40
2019-03-23T06:35:53.513Z,2.50
2019-03-23T06:40:02.907Z,2.70
2019-03-23T06:44:12.495Z,3.00
2019-03-23T06:48:21.891Z,3.10
2019-03-23T06:52:31.507Z,3.30
2019-03-23T06:56:40.819Z,3.40
2019-03-23T07:00:50.286Z,3.60
2019-03-23T07:04:59.614Z,3.80
2019-03-23T07:09:16.038Z,4.00
2019-03-23T07:13:20.367Z,4.20
2019-03-23T07:17:30.016Z,4.30
2019-03-23T07:21:39.870Z,4.40
2019-03-23T07:25:49.551Z,4.50
2019-03-23T07:29:59.165Z,4.70
2019-03-23T07:34:08.506Z,5.00
2019-03-23T07:38:18.066Z,5.20
2019-03-23T07:42:27.385Z,5.40
2019-03-23T07:46:36.703Z,5.50
2019-03-23T07:50:46.303Z,5.70
2019-03-23T07:54:55.618Z,5.80
2019-03-23T07:59:05.025Z,5.90
2019-03-23T08:03:14.366Z,6.00
2019-03-23T08:07:24.002Z,6.20
2019-03-23T08:11:33.298Z,6.40
2019-03-23T08:15:43.030Z,6.30
2019-03-23T08:19:52.763Z,6.20
2019-03-23T08:24:02.694Z,6.30
2019-03-23T08:28:12.383Z,6.30
2019-03-23T08:32:21.711Z,6.40
2019-03-23T08:36:31.026Z,6.50
2019-03-23T08:40:41.215Z,6.50
2019-03-23T08:44:50.521Z,6.50
2019-03-23T08:49:00.203Z,6.70
2019-03-23T08:53:13.602Z,6.80
2019-03-23T08:57:23.247Z,6.90
2019-03-23T09:01:32.558Z,7.20
2019-03-23T09:05:42.250Z,7.50
2019-03-23T09:09:59.030Z,7.80
2019-03-23T09:14:02.771Z,8.10
2019-03-23T09:18:12.382Z,8.30
2019-03-23T09:22:22.018Z,8.50
2019-03-23T09:26:31.974Z,8.60
2019-03-23T09:30:41.302Z,8.80
2019-03-23T09:34:50.626Z,8.90
2019-03-23T09:38:59.945Z,9.00
2019-03-23T09:43:09.254Z,9.10
2019-03-23T09:47:18.578Z,9.20
2019-03-23T09:51:29.343Z,9.30
2019-03-23T09:55:38.737Z,9.60
2019-03-23T09:59:48.065Z,9.90
2019-03-23T10:03:57.815Z,10.10
2019-03-23T10:08:07.135Z,10.10
2019-03-23T10:12:16.554Z,10.20
2019-03-23T10:16:25.869Z,10.50
2019-03-23T10:20:35.194Z,10.90
2019-03-23T10:24:44.500Z,11.10
2019-03-23T10:28:54.090Z,10.90
2019-03-23T10:33:03.807Z,11.20
2019-03-23T10:37:13.293Z,11.20
2019-03-23T10:41:22.614Z,11.20
2019-03-23T10:45:31.938Z,11.70
2019-03-23T10:49:41.247Z,12.00
2019-03-23T10:53:50.569Z,12.40
2019-03-23T10:57:59.889Z,12.50
2019-03-23T11:02:09.363Z,12.90
2019-03-23T11:06:19.352Z,13.10
2019-03-23T11:10:28.641Z,13.00
2019-03-23T11:14:37.958Z,12.80
2019-03-23T11:18:47.288Z,12.90
2019-03-23T11:22:56.613Z,13.20
2019-03-23T11:27:06.270Z,12.90
2019-03-23T11:31:15.593Z,12.80
2019-03-23T11:35:24.914Z,13.10
2019-03-23T11:39:34.505Z,13.30
2019-03-23T11:43:43.835Z,13.00
2019-03-23T11:47:53.159Z,13.20
2019-03-23T11:52:02.622Z,13.60
2019-03-23T11:56:12.210Z,13.70
2019-03-23T12:00:21.634Z,13.30
2019-03-23T12:04:30.950Z,13.10
2019-03-23T12:08:40.275Z,13.30
2019-03-23T12:12:49.666Z,13.30
2019-03-23T12:16:59.302Z,13.40
2019-03-23T12:21:09.081Z,13.10
2019-03-23T12:25:18.478Z,13.00
2019-03-23T12:29:27.950Z,13.20
2019-03-23T12:33:37.286Z,13.30
2019-03-23T12:37:46.686Z,13.20
2019-03-23T12:41:56.002Z,13.30
2019-03-23T12:46:05.394Z,13.20
2019-03-23T12:50:14.965Z,13.00
2019-03-23T12:54:24.366Z,12.80
2019-03-23T12:58:34.282Z,12.60
2019-03-23T13:02:44.026Z,12.50
2019-03-23T13:06:53.604Z,12.70
2019-03-23T13:11:03.050Z,12.70
2019-03-23T13:15:14.426Z,12.60
2019-03-23T13:19:23.750Z,12.60
2019-03-23T13:23:33.070Z,12.50
2019-03-23T13:27:42.417Z,12.40
2019-03-23T13:31:51.714Z,12.50
2019-03-23T13:36:01.052Z,12.90
2019-03-23T13:40:10.637Z,13.30
2019-03-23T13:44:20.071Z,13.50
2019-03-23T13:48:29.702Z,13.30
2019-03-23T13:52:39.565Z,13.40
2019-03-23T13:56:48.883Z,13.60
2019-03-23T14:00:58.565Z,13.30
2019-03-23T14:05:15.673Z,13.40
2019-03-23T14:09:19.066Z,13.90
2019-03-23T14:13:28.405Z,14.80
2019-03-23T14:17:37.726Z,14.50
2019-03-23T14:21:47.045Z,14.20
2019-03-23T14:25:56.378Z,13.70
2019-03-23T14:30:06.693Z,13.60
2019-03-23T14:34:16.017Z,13.30
2019-03-23T14:38:26.014Z,13.10
2019-03-23T14:42:35.814Z,13.40
2019-03-23T14:46:45.138Z,13.60
2019-03-23T14:50:54.474Z,13.10
2019-03-23T14:55:04.534Z,12.60
2019-03-23T14:59:14.285Z,12.50
2019-03-23T15:03:23.935Z,12.60
2019-03-23T15:07:33.269Z,12.60
2019-03-23T15:11:42.647Z,12.20
2019-03-23T15:15:52.275Z,12.10
2019-03-23T15:20:01.929Z,12.00
2019-03-23T15:24:11.786Z,11.90
2019-03-23T15:28:21.116Z,11.90
2019-03-23T15:32:30.518Z,11.70
2019-03-23T15:36:40.116Z,11.70
2019-03-23T15:40:49.775Z,11.60
2019-03-23T15:44:59.099Z,11.60
2019-03-23T15:49:08.838Z,11.60
2019-03-23T15:53:18.482Z,11.60
2019-03-23T15:57:27.802Z,11.70
2019-03-23T16:01:37.473Z,11.60
2019-03-23T16:05:46.801Z,11.60
2019-03-23T16:09:56.133Z,11.60
2019-03-23T16:14:05.781Z,11.60
2019-03-23T16:18:15.102Z,11.70
2019-03-23T16:22:24.797Z,11.70
2019-03-23T16:26:34.153Z,11.70
2019-03-23T16:30:43.471Z,11.70
2019-03-23T16:34:52.835Z,11.70
2019-03-23T16:39:02.438Z,11.60
2019-03-23T16:43:12.246Z,11.50
2019-03-23T16:47:21.562Z,11.30
2019-03-23T16:51:30.882Z,11.20
2019-03-23T16:55:40.209Z,11.10
2019-03-23T16:59:49.532Z,11.00
2019-03-23T17:03:58.853Z,10.80
2019-03-23T17:08:08.310Z,10.70
2019-03-23T17:12:17.994Z,10.60
2019-03-23T17:16:27.558Z,10.70
2019-03-23T17:20:37.026Z,10.70
2019-03-23T17:24:46.678Z,10.60
2019-03-23T17:28:56.870Z,10.50
2019-03-23T17:33:08.807Z,10.40
2019-03-23T17:37:17.631Z,10.40
2019-03-23T17:41:27.827Z,10.30
2019-03-23T17:45:37.298Z,10.20
2019-03-23T17:49:46.628Z,10.10
2019-03-23T17:53:58.843Z,10.00
2019-03-23T17:58:07.692Z,10.00
2019-03-23T18:02:17.010Z,10.00
2019-03-23T18:06:26.664Z,10.00
2019-03-23T18:10:36.809Z,10.00
2019-03-23T18:14:46.123Z,9.90
2019-03-23T18:18:55.437Z,9.90
2019-03-23T18:23:04.902Z,9.90
2019-03-23T18:27:14.724Z,9.80
2019-03-23T18:31:24.142Z,9.80
2019-03-23T18:35:33.601Z,9.80
2019-03-23T18:39:43.254Z,9.80
2019-03-23T18:43:52.566Z,9.80
2019-03-23T18:48:02.315Z,9.80
2019-03-23T18:52:11.915Z,9.80
2019-03-23T18:56:21.571Z,9.80
2019-03-23T19:00:35.558Z,9.80
2019-03-23T19:04:44.866Z,9.70
2019-03-23T19:08:55.174Z,9.70
2019-03-23T19:13:05.068Z,9.80
2019-03-23T19:17:14.838Z,9.80
2019-03-23T19:21:24.154Z,9.80
2019-03-23T19:25:33.930Z,9.80
2019-03-23T19:29:43.245Z,9.70
2019-03-23T19:33:53.264Z,9.70
2019-03-23T19:38:03.146Z,9.60
2019-03-23T19:42:13.150Z,9.60
2019-03-23T19:46:23.102Z,9.60
2019-03-23T19:50:32.413Z,9.60
2019-03-23T19:54:41.743Z,9.50
2019-03-23T19:58:52.063Z,9.50
2019-03-23T20:03:01.823Z,9.40
2019-03-23T20:07:11.132Z,9.30
2019-03-23T20:11:21.126Z,9.30
2019-03-23T20:15:30.997Z,9.20
2019-03-23T20:19:40.625Z,9.10
2019-03-23T20:23:51.277Z,9.10
2019-03-23T20:28:00.801Z,9.00
2019-03-23T20:32:10.203Z,9.00
2019-03-23T20:36:19.567Z,8.90
2019-03-23T20:40:28.922Z,8.90
2019-03-23T20:44:38.317Z,8.90
2019-03-23T20:48:47.737Z,9.00
2019-03-23T20:52:57.128Z,9.00
2019-03-23T20:57:06.452Z,9.00
2019-03-23T21:01:16.124Z,9.10
2019-03-23T21:05:33.765Z,9.10
2019-03-23T21:09:36.946Z,9.10
2019-03-23T21:13:46.919Z,9.10
2019-03-23T21:17:56.672Z,9.10
2019-03-23T21:22:06.068Z,9.10
2019-03-23T21:26:15.398Z,9.10
2019-03-23T21:30:24.801Z,9.10
2019-03-23T21:34:34.446Z,9.10
2019-03-23T21:38:44.111Z,9.00
2019-03-23T21:42:53.795Z,9.00
2019-03-23T21:47:03.111Z,9.00
2019-03-23T21:51:12.715Z,9.00
2019-03-23T21:55:22.118Z,9.00
2019-03-23T21:59:31.753Z,8.90
2019-03-23T22:03:41.154Z,8.90
2019-03-23T22:07:50.481Z,8.90
2019-03-23T22:11:59.800Z,8.80
2019-03-23T22:16:09.118Z,8.70
2019-03-23T22:20:18.438Z,8.60
2019-03-23T22:24:28.024Z,8.50
2019-03-23T22:28:37.347Z,8.50
2019-03-23T22:32:46.923Z,8.50
2019-03-23T22:36:56.280Z,8.60
2019-03-23T22:41:05.725Z,8.60
2019-03-23T22:45:15.220Z,8.70
2019-03-23T22:49:24.810Z,8.80
2019-03-23T22:53:34.521Z,8.80
2019-03-23T22:57:43.841Z,8.80
2019-03-23T23:01:53.563Z,8.90
2019-03-23T23:06:03.216Z,8.90
2019-03-23T23:10:12.898Z,8.90
2019-03-23T23:14:22.571Z,8.80
2019-03-23T23:18:32.164Z,8.90
2019-03-23T23:22:41.817Z,9.00
2019-03-23T23:26:51.482Z,9.00
2019-03-23T23:31:01.093Z,8.90
2019-03-23T23:35:11.653Z,8.90
2019-03-23T23:39:20.974Z,8.90
2019-03-23T23:43:30.438Z,8.90
2019-03-23T23:47:39.814Z,8.90
2019-03-23T23:51:50.338Z,8.90
2019-03-23T23:55:59.856Z,8.90
